Time;durP1;ratioP1;P1;durP2;ratioP2;P2;SDS_P1;SDS_P2;PMS_P1;PMS_P2;Temp;Humidity;BMP_temperature;BMP_pressure;BME280_temperature;BME280_humidity;BME280_pressure;Samples;Min_cycle;Max_cycle;Signal;HPM_P1;HPM_P2
2022/05/12 00:01:16;;;;;;;8.60;2.42;;;;;;;11.07;100.00;100978.84;4716882;29;20062;-73
2022/05/12 00:03:42;;;;;;;8.52;3.00;;;;;;;11.05;100.00;100977.41;4718540;29;22503;-73
2022/05/12 00:06:08;;;;;;;8.85;2.13;;;;;;;11.04;100.00;100995.44;4730687;29;20042;-73
2022/05/12 00:08:35;;;;;;;8.90;3.47;;;;;;;11.09;100.00;101000.19;4731986;29;20051;-73
2022/05/12 00:11:00;;;;;;;16.13;5.97;;;;;;;11.06;100.00;101006.03;4705181;29;20043;-73
2022/05/12 00:13:26;;;;;;;19.27;7.50;;;;;;;11.03;100.00;101004.56;4712845;29;20073;-73
2022/05/12 00:15:53;;;;;;;13.07;3.33;;;;;;;10.96;100.00;101009.16;4716548;29;20051;-73
2022/05/12 00:18:18;;;;;;;9.77;2.80;;;;;;;10.81;100.00;101013.94;4730606;29;20038;-72
2022/05/12 00:20:44;;;;;;;11.93;2.90;;;;;;;10.77;100.00;101026.19;4716010;29;20039;-72
2022/05/12 00:23:19;;;;;;;7.72;2.08;;;;;;;10.65;100.00;101034.91;4729610;29;20047;-73
2022/05/12 00:25:47;;;;;;;10.45;2.47;;;;;;;10.53;100.00;101039.28;4702644;29;20075;-73
2022/05/12 00:28:14;;;;;;;7.40;1.90;;;;;;;10.45;100.00;101048.38;4721062;29;20512;-73
2022/05/12 00:30:40;;;;;;;6.40;2.45;;;;;;;10.36;100.00;101056.88;4732337;29;20066;-72
2022/05/12 00:33:06;;;;;;;8.07;2.20;;;;;;;10.33;100.00;101051.91;4715467;29;20042;-73
2022/05/12 00:35:32;;;;;;;7.05;1.70;;;;;;;10.31;100.00;101062.03;4685575;29;20051;-73
2022/05/12 00:37:57;;;;;;;10.50;2.35;;;;;;;10.26;100.00;101060.78;4699728;29;20373;-73
2022/05/12 00:40:23;;;;;;;5.03;1.35;;;;;;;10.22;100.00;101072.16;4714575;29;20093;-73
2022/05/12 00:42:52;;;;;;;10.00;1.65;;;;;;;10.21;100.00;101073.16;4697998;29;20496;-73
2022/05/12 00:45:18;;;;;;;4.95;1.48;;;;;;;10.19;100.00;101081.47;4735108;29;20047;-73
2022/05/12 00:47:43;;;;;;;10.20;1.80;;;;;;;10.15;100.00;101087.47;4726054;29;20703;-73
2022/05/12 00:50:09;;;;;;;8.45;1.33;;;;;;;10.06;100.00;101084.13;4722218;29;20065;-72
2022/05/12 00:52:35;;;;;;;7.43;1.30;;;;;;;10.04;100.00;101086.22;4714593;29;20034;-73
2022/05/12 00:55:17;;;;;;;5.20;1.35;;;;;;;9.94;100.00;101086.59;4717610;29;20047;-73
2022/05/12 00:57:49;;;;;;;6.22;1.13;;;;;;;9.87;100.00;101101.06;4729005;29;20039;-73
2022/05/12 01:00:15;;;;;;;6.00;1.67;;;;;;;9.79;100.00;101105.59;4718138;29;20193;-72
2022/05/12 01:02:42;;;;;;;6.18;1.52;;;;;;;9.70;100.00;101111.34;4716750;29;20069;-72
2022/05/12 01:05:08;;;;;;;4.00;1.38;;;;;;;9.58;100.00;101108.38;4715929;29;20054;-72
2022/05/12 01:07:37;;;;;;;7.68;1.48;;;;;;;9.43;100.00;101121.94;4734306;29;20071;-73
2022/05/12 01:10:03;;;;;;;6.20;1.90;;;;;;;9.36;100.00;101120.25;4717429;29;20055;-72
2022/05/12 01:12:30;;;;;;;10.55;1.60;;;;;;;9.21;100.00;101123.88;4714670;29;20118;-72
2022/05/12 01:14:55;;;;;;;6.60;1.52;;;;;;;9.16;100.00;101122.81;4712423;29;22941;-72
2022/05/12 01:17:23;;;;;;;6.13;1.48;;;;;;;9.15;100.00;101129.22;4698097;29;20054;-73
2022/05/12 01:19:51;;;;;;;9.43;1.52;;;;;;;9.03;100.00;101126.25;4731942;29;20087;-73
2022/05/12 01:22:51;;;;;;;6.13;1.40;;;;;;;9.02;100.00;101138.00;4717633;29;20915;-73
2022/05/12 01:25:19;;;;;;;6.57;1.45;;;;;;;8.98;100.00;101137.56;4711902;29;20050;-73
2022/05/12 01:27:45;;;;;;;6.32;1.58;;;;;;;8.98;100.00;101142.13;4696782;29;20114;-73
2022/05/12 01:30:13;;;;;;;5.57;1.02;;;;;;;8.97;100.00;101148.53;4734375;29;20055;-72
2022/05/12 01:32:39;;;;;;;4.97;1.30;;;;;;;8.89;100.00;101149.50;4696186;29;22860;-73
2022/05/12 01:35:06;;;;;;;2.63;0.93;;;;;;;8.83;100.00;101153.78;4705166;29;22553;-73
2022/05/12 01:37:32;;;;;;;5.32;1.50;;;;;;;8.78;100.00;101150.84;4702778;29;20066;-73
2022/05/12 01:39:58;;;;;;;3.05;1.23;;;;;;;8.74;100.00;101160.34;4713249;29;20672;-72
2022/05/12 01:42:23;;;;;;;6.72;1.55;;;;;;;8.71;100.00;101163.41;4711633;29;20046;-72
2022/05/12 01:44:49;;;;;;;9.00;1.35;;;;;;;8.68;100.00;101163.78;4718383;29;20054;-72
2022/05/12 01:47:16;;;;;;;4.95;1.25;;;;;;;8.62;100.00;101172.59;4718150;29;20047;-72
2022/05/12 01:49:41;;;;;;;6.78;1.50;;;;;;;8.60;100.00;101174.66;4709075;29;21117;-72
2022/05/12 01:52:08;;;;;;;7.82;1.40;;;;;;;8.58;100.00;101176.69;4732503;29;20054;-72
2022/05/12 01:54:34;;;;;;;8.10;1.77;;;;;;;8.53;100.00;101179.09;4687725;29;20043;-72
2022/05/12 01:56:59;;;;;;;7.57;1.48;;;;;;;8.47;100.00;101179.88;4718404;29;20100;-72
2022/05/12 01:59:24;;;;;;;4.78;1.52;;;;;;;8.40;100.00;101173.63;4717445;29;20071;-72
2022/05/12 02:01:50;;;;;;;8.75;1.63;;;;;;;8.32;100.00;101183.44;4717385;29;20043;-72
2022/05/12 02:04:16;;;;;;;8.82;1.92;;;;;;;8.38;100.00;101191.75;4719133;29;20047;-73
2022/05/12 02:06:42;;;;;;;13.98;2.17;;;;;;;8.41;100.00;101189.53;4715861;29;20051;-72
2022/05/12 02:09:09;;;;;;;4.15;1.98;;;;;;;8.48;100.00;101192.28;4735654;29;20117;-72
2022/05/12 02:11:34;;;;;;;8.80;2.03;;;;;;;8.50;100.00;101203.69;4718590;29;20502;-73
2022/05/12 02:14:00;;;;;;;9.23;2.47;;;;;;;8.49;100.00;101204.69;4735646;29;20039;-72
2022/05/12 02:16:25;;;;;;;6.13;2.22;;;;;;;8.50;100.00;101214.41;4719372;29;20030;-73
2022/05/12 02:18:52;;;;;;;7.85;2.63;;;;;;;8.46;100.00;101221.16;4735789;29;20442;-72
2022/05/12 02:21:17;;;;;;;7.65;2.50;;;;;;;8.40;100.00;101228.13;4735542;29;20051;-73
2022/05/12 02:23:43;;;;;;;7.00;2.65;;;;;;;8.38;100.00;101223.97;4704706;29;20053;-72
2022/05/12 02:26:09;;;;;;;13.40;2.97;;;;;;;8.34;100.00;101231.53;4717569;29;20057;-72
2022/05/12 02:28:34;;;;;;;8.80;2.95;;;;;;;8.34;100.00;101237.75;4704200;29;20095;-72
2022/05/12 02:31:00;;;;;;;12.25;3.13;;;;;;;8.30;100.00;101239.13;4717981;29;20165;-72
2022/05/12 02:33:25;;;;;;;8.90;3.33;;;;;;;8.22;100.00;101233.06;4720451;29;20980;-72
2022/05/12 02:35:51;;;;;;;9.43;3.05;;;;;;;8.12;100.00;101241.41;4719056;29;20055;-72
2022/05/12 02:38:16;;;;;;;10.25;3.38;;;;;;;8.08;100.00;101250.84;4733741;29;21101;-72
2022/05/12 02:40:42;;;;;;;12.30;3.30;;;;;;;8.06;100.00;101250.19;4723719;29;20051;-72
2022/05/12 02:43:26;;;;;;;10.25;3.30;;;;;;;8.06;100.00;101247.50;4719708;29;20066;-72
2022/05/12 02:45:56;;;;;;;8.10;3.72;;;;;;;8.00;100.00;101262.50;4720298;29;20044;-72
2022/05/12 02:48:26;;;;;;;9.55;3.63;;;;;;;7.93;100.00;101258.88;4733404;29;20046;-72
2022/05/12 02:50:52;;;;;;;12.90;3.67;;;;;;;7.95;100.00;101266.75;4719508;29;20051;-73
2022/05/12 02:53:17;;;;;;;8.68;4.05;;;;;;;7.91;100.00;101268.16;4735326;29;21215;-72
2022/05/12 02:55:43;;;;;;;13.02;4.10;;;;;;;7.92;100.00;101273.31;4702172;29;20047;-73
2022/05/12 02:58:08;;;;;;;13.23;5.38;;;;;;;7.95;100.00;101272.13;4718343;29;20047;-72
2022/05/12 03:00:34;;;;;;;14.02;4.47;;;;;;;7.94;100.00;101275.81;4703155;29;20070;-72
2022/05/12 03:03:00;;;;;;;11.27;4.75;;;;;;;7.92;100.00;101272.47;4721060;29;20047;-73
2022/05/12 03:05:26;;;;;;;11.30;5.25;;;;;;;8.00;100.00;101272.38;4718799;29;20038;-73
2022/05/12 03:07:52;;;;;;;11.82;5.05;;;;;;;8.01;100.00;101282.94;4700887;29;20068;-73
2022/05/12 03:10:17;;;;;;;19.50;7.25;;;;;;;7.98;100.00;101279.81;4700595;29;22573;-72
2022/05/12 03:12:43;;;;;;;10.80;5.18;;;;;;;7.98;100.00;101290.53;4701264;29;20043;-72
2022/05/12 03:15:09;;;;;;;17.20;6.82;;;;;;;7.94;100.00;101299.97;4733198;29;20047;-73
2022/05/12 03:17:35;;;;;;;12.40;5.18;;;;;;;7.97;100.00;101300.44;4718373;29;20050;-72
2022/05/12 03:20:01;;;;;;;14.82;6.18;;;;;;;7.99;100.00;101300.22;4716705;29;20062;-73
2022/05/12 03:22:27;;;;;;;15.73;6.03;;;;;;;7.99;100.00;101298.38;4718464;29;23739;-72
2022/05/12 03:24:53;;;;;;;14.80;6.22;;;;;;;7.95;100.00;101299.78;4719971;29;20075;-72
2022/05/12 03:27:18;;;;;;;13.00;6.38;;;;;;;7.90;100.00;101302.19;4734791;29;20049;-73
2022/05/12 03:29:43;;;;;;;17.38;6.68;;;;;;;7.84;100.00;101310.97;4702028;29;20062;-73
2022/05/12 03:32:12;;;;;;;18.10;7.07;;;;;;;7.87;100.00;101308.75;4724591;29;20042;-73
2022/05/12 03:34:39;;;;;;;26.00;7.32;;;;;;;7.90;100.00;101304.88;4701306;29;20147;-73
2022/05/12 03:37:09;;;;;;;18.92;6.63;;;;;;;7.92;100.00;101307.34;4715664;29;20051;-73
2022/05/12 03:39:36;;;;;;;18.08;7.43;;;;;;;7.94;100.00;101302.66;4714294;29;20093;-73
2022/05/12 03:42:03;;;;;;;20.50;6.90;;;;;;;7.89;100.00;101317.41;4715995;29;20047;-73
2022/05/12 03:44:46;;;;;;;23.45;8.65;;;;;;;7.93;100.00;101315.22;4717208;29;20042;-73
2022/05/12 03:47:19;;;;;;;21.05;7.28;;;;;;;7.89;100.00;101322.78;4720019;29;20511;-74
2022/05/12 03:49:48;;;;;;;19.65;9.10;;;;;;;7.91;100.00;101327.97;4703147;29;20055;-73
2022/05/12 03:52:14;;;;;;;20.65;7.65;;;;;;;7.89;100.00;101327.31;4701454;29;20055;-73
2022/05/12 03:54:40;;;;;;;20.92;8.75;;;;;;;7.87;100.00;101324.00;4713642;29;20123;-73
2022/05/12 03:57:06;;;;;;;22.98;8.27;;;;;;;7.88;100.00;101333.72;4716585;29;20047;-73
2022/05/12 03:59:32;;;;;;;23.67;8.80;;;;;;;7.93;100.00;101335.84;4714371;29;23496;-73
2022/05/12 04:01:58;;;;;;;22.40;8.75;;;;;;;7.94;100.00;101334.84;4698648;29;20054;-72
2022/05/12 04:04:23;;;;;;;26.90;8.88;;;;;;;7.91;100.00;101336.03;4716648;29;20039;-73
2022/05/12 04:06:49;;;;;;;18.73;7.80;;;;;;;7.92;100.00;101344.91;4718504;29;20043;-73
2022/05/12 04:09:14;;;;;;;18.45;8.70;;;;;;;7.94;100.00;101342.88;4723063;29;20085;-73
2022/05/12 04:11:40;;;;;;;21.35;8.77;;;;;;;8.01;100.00;101347.34;4714573;29;21121;-73
2022/05/12 04:14:06;;;;;;;22.52;8.65;;;;;;;8.04;100.00;101346.97;4717858;29;20079;-73
2022/05/12 04:16:32;;;;;;;19.90;9.75;;;;;;;8.11;100.00;101352.44;4734087;29;20654;-73
2022/05/12 04:18:58;;;;;;;25.77;10.00;;;;;;;8.15;100.00;101347.53;4719826;29;20050;-73
2022/05/12 04:21:24;;;;;;;22.02;9.98;;;;;;;8.20;100.00;101358.53;4732996;29;20040;-72
2022/05/12 04:23:50;;;;;;;23.02;10.18;;;;;;;8.26;100.00;101361.31;4719156;29;20208;-73
2022/05/12 04:26:16;;;;;;;23.60;11.05;;;;;;;8.34;100.00;101363.91;4733682;29;20550;-73
2022/05/12 04:28:41;;;;;;;24.27;9.57;;;;;;;8.36;100.00;101375.28;4734252;29;20049;-73
2022/05/12 04:31:07;;;;;;;25.38;10.73;;;;;;;8.49;100.00;101380.03;4684055;29;20091;-73
2022/05/12 04:36:16;;;;;;;;;;;;;;;8.62;100.00;101387.44;4708644;29;20081;-73
2022/05/12 04:38:41;;;;;;;22.27;9.88;;;;;;;8.68;100.00;101389.38;4718830;29;19934;-73
2022/05/12 04:41:08;;;;;;;28.23;11.57;;;;;;;8.75;100.00;101398.34;4718021;29;20043;-73
2022/05/12 04:43:34;;;;;;;23.45;10.63;;;;;;;8.82;100.00;101399.28;4717713;29;20031;-73
2022/05/12 04:45:59;;;;;;;26.33;10.73;;;;;;;8.91;100.00;101399.97;4701903;29;20095;-72
2022/05/12 04:48:26;;;;;;;16.55;9.88;;;;;;;8.98;100.00;101402.75;4717572;29;22769;-73
2022/05/12 04:50:51;;;;;;;23.55;9.73;;;;;;;9.05;100.00;101403.66;4717045;29;20050;-73
2022/05/12 04:53:17;;;;;;;23.27;9.48;;;;;;;9.13;100.00;101411.63;4716843;29;20070;-73
2022/05/12 04:55:43;;;;;;;22.10;10.15;;;;;;;9.18;100.00;101413.75;4734850;29;20077;-73
2022/05/12 04:58:10;;;;;;;24.38;9.60;;;;;;;9.23;100.00;101411.31;4697141;29;20047;-73
2022/05/12 05:00:40;;;;;;;18.17;8.18;;;;;;;9.30;100.00;101421.13;4734669;29;20038;-73
2022/05/12 05:03:07;;;;;;;19.77;8.52;;;;;;;9.39;100.00;101416.44;4702464;29;21348;-73
2022/05/12 05:05:32;;;;;;;20.23;8.57;;;;;;;9.49;100.00;101416.16;4714717;29;20046;-73
2022/05/12 05:07:58;;;;;;;19.58;8.82;;;;;;;9.57;100.00;101416.00;4723226;29;20046;-73
2022/05/12 05:10:23;;;;;;;16.80;8.63;;;;;;;9.69;100.00;101427.09;4719769;29;23162;-73
2022/05/12 05:12:49;;;;;;;18.15;8.02;;;;;;;10.09;100.00;101433.66;4720357;29;20194;-73
2022/05/12 05:15:16;;;;;;;20.00;7.88;;;;;;;11.13;100.00;101436.34;4701982;29;20060;-73
2022/05/12 05:17:43;;;;;;;12.88;6.25;;;;;;;12.54;100.00;101433.56;4721625;29;20732;-73
2022/05/12 05:20:12;;;;;;;12.82;5.50;;;;;;;13.93;100.00;101437.47;4691222;29;20051;-73
2022/05/12 05:22:37;;;;;;;9.13;4.40;;;;;;;15.20;100.00;101435.13;4735999;29;21036;-73
2022/05/12 05:25:04;;;;;;;11.18;4.32;;;;;;;16.09;100.00;101435.28;4705247;29;20051;-73
2022/05/12 05:27:29;;;;;;;13.48;4.85;;;;;;;16.62;100.00;101444.38;4706689;29;20050;-73
2022/05/12 05:29:55;;;;;;;11.18;4.53;;;;;;;16.69;100.00;101442.34;4716514;29;20749;-73
2022/05/12 05:32:21;;;;;;;9.55;3.70;;;;;;;16.80;100.00;101444.25;4721522;29;20661;-73
2022/05/12 05:34:47;;;;;;;12.90;4.65;;;;;;;17.24;100.00;101458.22;4717066;29;20043;-73
2022/05/12 05:37:12;;;;;;;11.13;4.40;;;;;;;17.61;100.00;101455.09;4701323;29;20069;-74
2022/05/12 05:39:38;;;;;;;8.52;3.58;;;;;;;17.90;100.00;101453.19;4715403;29;20039;-74
2022/05/12 05:42:09;;;;;;;11.60;3.92;;;;;;;18.09;100.00;101448.31;4704340;29;23513;-74
2022/05/12 05:44:35;;;;;;;12.82;4.15;;;;;;;17.97;100.00;101456.59;4722105;29;20099;-74
2022/05/12 05:47:01;;;;;;;9.43;3.53;;;;;;;17.96;100.00;101465.00;4722030;29;20167;-73
2022/05/12 05:49:28;;;;;;;11.23;3.95;;;;;;;18.03;100.00;101471.09;4719223;29;20069;-73
2022/05/12 05:54:38;;;;;;;13.02;4.47;;;;;;;18.72;100.00;101488.03;4722779;29;20063;-73
2022/05/12 05:57:04;;;;;;;15.23;3.63;;;;;;;18.88;100.00;101477.31;4732386;29;20035;-72
2022/05/12 05:59:29;;;;;;;9.88;4.10;;;;;;;19.20;97.46;101489.22;4706081;29;20461;-73
2022/05/12 06:01:56;;;;;;;14.45;4.05;;;;;;;19.61;87.77;101497.03;4719264;29;20100;-73
2022/05/12 06:04:21;;;;;;;16.27;3.63;;;;;;;19.66;81.25;101499.84;4716429;29;20047;-73
2022/05/12 06:06:47;;;;;;;8.55;3.58;;;;;;;19.82;82.33;101503.56;4718445;29;20066;-73
2022/05/12 06:09:13;;;;;;;17.48;3.90;;;;;;;20.06;75.11;101499.41;4697074;29;20055;-73
2022/05/12 06:11:41;;;;;;;12.10;3.55;;;;;;;20.01;74.42;101507.56;4733771;29;20205;-73
2022/05/12 06:14:07;;;;;;;13.27;4.32;;;;;;;19.72;73.56;101516.03;4732846;29;20034;-72
2022/05/12 06:16:32;;;;;;;13.60;3.42;;;;;;;19.94;75.39;101506.97;4725024;29;20468;-73
2022/05/12 06:18:57;;;;;;;13.35;3.53;;;;;;;20.27;68.05;101516.81;4735416;29;20066;-72
2022/05/12 06:21:23;;;;;;;13.43;3.50;;;;;;;20.39;66.49;101522.09;4686188;29;20146;-72
2022/05/12 06:23:48;;;;;;;10.43;3.10;;;;;;;20.25;67.00;101528.03;4733983;29;20477;-72
2022/05/12 06:26:14;;;;;;;9.48;3.35;;;;;;;20.30;65.85;101524.50;4719385;29;20042;-72
2022/05/12 06:28:46;;;;;;;9.43;3.25;;;;;;;20.30;65.10;101537.34;4739452;29;20088;-72
2022/05/12 06:31:20;;;;;;;9.00;2.88;;;;;;;20.35;66.21;101540.13;4699169;29;24642;-72
2022/05/12 06:33:46;;;;;;;9.90;3.83;;;;;;;20.81;61.91;101548.69;4732220;29;20036;-72
2022/05/12 06:36:11;;;;;;;10.70;3.30;;;;;;;20.95;59.13;101549.88;4729296;29;20081;-68
2022/05/12 06:38:38;;;;;;;17.95;4.05;;;;;;;20.91;59.70;101549.56;4717404;29;20081;-72
2022/05/12 06:41:04;;;;;;;10.40;3.10;;;;;;;20.94;62.35;101556.44;4731244;29;20162;-72
2022/05/12 06:43:30;;;;;;;13.60;3.55;;;;;;;21.29;58.62;101564.03;4706560;29;20066;-71
2022/05/12 06:45:56;;;;;;;11.15;3.60;;;;;;;21.06;58.59;101565.31;4716945;29;20163;-71
2022/05/12 06:48:23;;;;;;;11.70;3.40;;;;;;;20.84;61.50;101576.38;4701814;29;20047;-71
2022/05/12 06:50:49;;;;;;;11.63;3.08;;;;;;;21.04;58.07;101575.69;4699558;29;20054;-72
2022/05/12 06:53:14;;;;;;;10.05;3.97;;;;;;;21.05;56.95;101571.03;4719807;29;20067;-72
2022/05/12 06:55:40;;;;;;;11.13;3.75;;;;;;;20.76;57.63;101567.84;4735705;29;20404;-72
2022/05/12 06:58:06;;;;;;;13.65;3.20;;;;;;;21.08;58.31;101576.78;4718105;29;20046;-72
2022/05/12 07:00:31;;;;;;;9.70;2.92;;;;;;;21.24;54.57;101585.13;4704323;29;20043;-72
2022/05/12 07:02:57;;;;;;;11.20;3.28;;;;;;;21.31;54.12;101577.47;4716925;29;20408;-72
2022/05/12 07:05:24;;;;;;;16.77;3.40;;;;;;;21.63;53.37;101593.81;4711728;29;20112;-72
2022/05/12 07:07:49;;;;;;;10.27;3.00;;;;;;;21.54;52.36;101593.47;4717968;29;20070;-72
2022/05/12 07:10:16;;;;;;;9.73;3.20;;;;;;;21.70;52.13;101593.56;4717820;29;20058;-72
2022/05/12 07:12:41;;;;;;;10.32;3.08;;;;;;;21.31;52.46;101582.97;4731437;29;20051;-72
2022/05/12 07:15:08;;;;;;;9.77;2.80;;;;;;;21.50;53.34;101599.78;4729191;29;20040;-72
2022/05/12 07:17:37;;;;;;;8.73;2.65;;;;;;;21.44;51.26;101598.91;4706928;29;20047;-72
2022/05/12 07:28:17;;;;;;;12.80;2.97;;;;;;;21.85;49.34;101613.63;4703267;29;20042;-74
2022/05/12 07:31:01;;;;;;;10.02;2.70;;;;;;;21.65;48.81;101619.03;4732480;29;20051;-73
2022/05/12 07:33:30;;;;;;;8.57;2.35;;;;;;;21.88;48.90;101623.22;4719529;29;20047;-73
2022/05/12 07:35:56;;;;;;;11.05;2.95;;;;;;;21.77;50.09;101621.56;4722601;29;21057;-73
2022/05/12 07:38:22;;;;;;;9.88;2.20;;;;;;;21.90;49.86;101621.03;4689460;29;20531;-73
2022/05/12 07:40:47;;;;;;;8.65;2.40;;;;;;;21.52;49.20;101614.88;4734107;29;20129;-73
2022/05/12 07:43:13;;;;;;;7.50;2.17;;;;;;;21.56;48.44;101620.66;4719008;29;20051;-73
2022/05/12 07:45:38;;;;;;;7.80;2.42;;;;;;;21.48;48.58;101616.50;4734716;29;20050;-73
2022/05/12 07:48:04;;;;;;;10.30;2.83;;;;;;;21.49;48.96;101629.13;4716115;29;20034;-73
2022/05/12 07:50:31;;;;;;;8.32;2.45;;;;;;;21.31;48.31;101632.28;4717723;29;20084;-73
2022/05/12 07:52:56;;;;;;;7.03;1.80;;;;;;;20.96;48.23;101633.72;4734421;29;21091;-73
2022/05/12 07:55:21;;;;;;;8.10;1.63;;;;;;;21.56;46.99;101623.38;4717905;29;20476;-73
2022/05/12 07:57:47;;;;;;;8.30;2.03;;;;;;;21.39;47.21;101621.66;4716366;29;20039;-72
2022/05/12 08:00:13;;;;;;;11.63;2.53;;;;;;;21.85;46.95;101629.25;4703005;29;20078;-74
2022/05/12 08:02:38;;;;;;;6.68;1.90;;;;;;;21.82;47.74;101627.03;4733473;29;20035;-74
2022/05/12 08:05:05;;;;;;;9.85;2.85;;;;;;;22.04;48.03;101622.19;4718718;29;20066;-74
2022/05/12 08:07:31;;;;;;;8.32;2.38;;;;;;;22.16;44.01;101627.44;4733490;29;20043;-72
2022/05/12 08:09:58;;;;;;;6.07;2.00;;;;;;;21.73;44.37;101631.38;4732195;29;20074;-73
2022/05/12 08:12:24;;;;;;;7.05;1.65;;;;;;;21.72;45.12;101618.78;4718797;29;20130;-73
2022/05/12 08:14:50;;;;;;;7.07;2.10;;;;;;;21.98;45.89;101628.75;4731971;29;20518;-75
2022/05/12 08:17:15;;;;;;;8.30;2.38;;;;;;;22.24;45.12;101635.13;4716861;29;20050;-73
2022/05/12 08:19:40;;;;;;;9.30;1.73;;;;;;;21.73;44.21;101636.88;4734207;29;20038;-73
2022/05/12 08:22:06;;;;;;;6.80;2.20;;;;;;;21.75;44.88;101640.19;4719788;29;20078;-73
2022/05/12 08:24:32;;;;;;;5.40;1.58;;;;;;;22.00;45.76;101632.03;4713776;29;20140;-73
2022/05/12 08:26:57;;;;;;;7.10;1.90;;;;;;;22.45;43.85;101646.16;4732663;29;20047;-74
2022/05/12 08:29:23;;;;;;;9.35;1.90;;;;;;;22.32;43.63;101633.75;4719562;29;20047;-74
2022/05/12 08:31:48;;;;;;;5.88;1.17;;;;;;;22.17;42.98;101652.97;4733826;29;20126;-74
2022/05/12 08:34:13;;;;;;;4.70;1.48;;;;;;;22.01;43.50;101644.66;4717050;29;25086;-74
2022/05/12 08:36:39;;;;;;;5.32;1.73;;;;;;;22.00;43.41;101659.47;4733732;29;20039;-74
2022/05/12 08:39:04;;;;;;;5.60;1.60;;;;;;;22.22;43.54;101647.47;4701626;29;20061;-74
2022/05/12 08:41:38;;;;;;;9.75;2.42;;;;;;;22.38;43.97;101654.66;4732780;29;20039;-73
2022/05/12 08:44:11;;;;;;;7.47;1.85;;;;;;;22.13;42.72;101641.66;4715786;29;20066;-73
2022/05/12 08:46:53;;;;;;;5.72;1.38;;;;;;;21.34;43.87;101642.72;4722390;29;20039;-73
2022/05/12 08:49:36;;;;;;;6.18;1.73;;;;;;;21.10;44.28;101643.13;4702291;29;20090;-73
2022/05/12 08:52:33;;;;;;;7.07;1.67;;;;;;;21.02;46.58;101643.59;4731167;29;20048;-74
2022/05/12 08:55:14;;;;;;;6.28;1.58;;;;;;;20.97;45.88;101651.78;4719257;29;20050;-73
2022/05/12 08:57:57;;;;;;;9.50;2.00;;;;;;;21.16;44.93;101657.66;4724211;29;20050;-73
2022/05/12 09:00:24;;;;;;;6.47;1.73;;;;;;;20.20;45.52;101651.06;4729430;29;20713;-73
2022/05/12 09:03:15;;;;;;;11.68;1.95;;;;;;;19.90;46.85;101650.72;4709534;29;20057;-74
2022/05/12 09:05:44;;;;;;;7.70;1.85;;;;;;;20.08;47.12;101655.88;4735727;29;21169;-74
2022/05/12 09:08:34;;;;;;;8.18;1.52;;;;;;;20.80;46.02;101654.66;4708399;29;20047;-73
2022/05/12 09:11:32;;;;;;;5.85;1.27;;;;;;;21.16;43.70;101655.72;4735784;29;23862;-74
2022/05/12 09:14:00;;;;;;;4.85;1.45;;;;;;;20.58;44.55;101664.88;4711064;29;20088;-72
2022/05/12 09:16:32;;;;;;;7.97;1.17;;;;;;;19.81;47.48;101660.47;4716243;29;20054;-73
2022/05/12 09:19:00;;;;;;;7.07;1.58;;;;;;;20.61;46.87;101670.66;4705208;29;20042;-73
2022/05/12 09:21:28;;;;;;;8.32;1.58;;;;;;;21.38;44.10;101671.28;4717035;29;20054;-72
2022/05/12 09:23:54;;;;;;;8.02;1.60;;;;;;;21.04;43.31;101668.81;4716548;29;20123;-72
2022/05/12 09:26:42;;;;;;;6.85;1.50;;;;;;;21.29;42.76;101676.38;4717411;29;20058;-72
2022/05/12 09:29:12;;;;;;;8.85;1.67;;;;;;;21.19;43.70;101676.31;4703006;29;23973;-72
2022/05/12 09:31:38;;;;;;;8.40;1.52;;;;;;;21.64;43.30;101656.59;4733308;29;21051;-71
2022/05/12 09:34:24;;;;;;;8.38;1.23;;;;;;;21.52;42.58;101675.19;4707992;29;20068;-72
2022/05/12 09:36:50;;;;;;;6.72;1.67;;;;;;;21.64;43.43;101678.53;4722359;29;20154;-72
2022/05/12 09:39:35;;;;;;;8.68;1.85;;;;;;;21.78;43.02;101678.03;4703210;29;20132;-72
2022/05/12 09:42:01;;;;;;;7.00;1.70;;;;;;;22.06;42.49;101674.03;4721700;29;20051;-72
2022/05/12 09:44:29;;;;;;;7.32;1.60;;;;;;;22.08;40.73;101672.66;4732229;29;20052;-72
2022/05/12 09:47:05;;;;;;;4.47;1.45;;;;;;;22.02;40.40;101673.75;4711790;29;22899;-72
2022/05/12 09:49:38;;;;;;;8.23;1.30;;;;;;;22.04;40.86;101674.31;4733156;29;20532;-72
2022/05/12 09:52:26;;;;;;;7.28;1.77;;;;;;;22.03;39.90;101675.38;4694909;29;20071;-72
2022/05/12 09:55:10;;;;;;;6.55;1.50;;;;;;;22.41;39.87;101683.47;4720177;29;20914;-73
2022/05/12 09:57:46;;;;;;;7.60;1.73;;;;;;;20.79;43.58;101674.91;4718725;29;20062;-73
2022/05/12 10:00:29;;;;;;;8.45;1.95;;;;;;;20.90;41.49;101684.88;4730702;29;20063;-72
2022/05/12 10:08:45;;;;;;;6.57;1.30;;;;;;;21.27;40.86;101688.69;4664679;30;20772;-72
2022/05/12 10:11:13;;;;;;;7.57;1.63;;;;;;;21.43;41.43;101683.06;4663725;30;21204;-72
2022/05/12 10:13:43;;;;;;;6.68;2.05;;;;;;;21.30;41.33;101686.25;4678143;29;20050;-73
2022/05/12 10:16:10;;;;;;;7.45;1.50;;;;;;;21.36;40.50;101682.47;4729177;29;20039;-69
2022/05/12 10:18:43;;;;;;;6.75;1.65;;;;;;;21.42;40.16;101680.59;4701404;29;20054;-72
2022/05/12 10:21:28;;;;;;;8.25;1.77;;;;;;;21.57;40.45;101686.16;4715165;29;20043;-71
2022/05/12 10:24:21;;;;;;;8.02;1.65;;;;;;;21.69;40.92;101685.94;4698688;29;23532;-72
2022/05/12 10:26:56;;;;;;;10.23;1.77;;;;;;;22.09;40.26;101685.28;4723362;29;20039;-72
2022/05/12 10:29:40;;;;;;;7.60;1.75;;;;;;;21.30;39.29;101688.16;4704966;29;20063;-72
2022/05/12 10:32:18;;;;;;;6.60;1.13;;;;;;;20.86;40.25;101696.63;4732683;29;20106;-72
2022/05/12 10:34:53;;;;;;;7.88;1.73;;;;;;;20.84;40.60;101685.91;4701374;29;20681;-71
2022/05/12 10:37:46;;;;;;;7.45;1.70;;;;;;;20.34;41.73;101680.75;4730710;29;20051;-71
2022/05/12 10:40:30;;;;;;;;;;;;;;;19.62;43.30;101696.28;4718088;29;20227;-71
2022/05/12 10:43:22;;;;;;;7.47;1.52;;;;;;;20.11;42.84;101682.72;4716010;29;19921;-71
2022/05/12 10:46:11;;;;;;;6.38;1.40;;;;;;;20.81;40.97;101694.63;4718168;29;20516;-71
2022/05/12 10:48:42;;;;;;;5.18;1.23;;;;;;;21.18;39.16;101697.41;4731388;29;20059;-70
2022/05/12 10:51:22;;;;;;;9.63;1.60;;;;;;;21.66;38.56;101692.81;4727759;29;20043;-71
2022/05/12 10:54:25;;;;;;;5.60;1.52;;;;;;;22.22;38.38;101694.13;4730704;29;20051;-71
2022/05/12 10:57:21;;;;;;;5.47;1.23;;;;;;;22.36;37.07;101698.03;4701159;29;21154;-71
2022/05/12 10:59:50;;;;;;;5.80;1.25;;;;;;;22.24;36.15;101698.25;4730503;29;20048;-71
2022/05/12 11:02:33;;;;;;;10.20;1.30;;;;;;;22.33;36.77;101693.91;4720575;29;20031;-71
2022/05/12 11:05:30;;;;;;;4.85;1.15;;;;;;;23.22;35.90;101704.66;4712844;29;20058;-71
2022/05/12 11:08:14;;;;;;;9.45;2.13;;;;;;;23.48;35.19;101711.78;4703049;29;20158;-71
2022/05/12 11:10:51;;;;;;;6.18;1.10;;;;;;;23.14;34.32;101705.25;4730498;29;20062;-70
2022/05/12 11:13:47;;;;;;;4.45;1.38;;;;;;;22.63;35.46;101706.84;4725944;29;22487;-71
2022/05/12 11:16:24;;;;;;;6.90;1.15;;;;;;;22.71;35.90;101701.88;4732946;29;20177;-71
2022/05/12 11:19:11;;;;;;;9.27;1.77;;;;;;;23.22;35.58;101701.94;4724986;29;20588;-71
2022/05/12 11:22:02;;;;;;;8.77;1.40;;;;;;;23.07;35.63;101706.34;4731608;29;20301;-71
2022/05/12 11:24:37;;;;;;;4.60;1.67;;;;;;;22.87;36.31;101690.66;4718029;29;20047;-71
2022/05/12 11:27:08;;;;;;;3.42;0.90;;;;;;;22.71;36.31;101702.75;4732612;29;20051;-70
2022/05/12 11:30:06;;;;;;;6.70;1.58;;;;;;;23.06;36.11;101710.19;4733878;29;20059;-72
2022/05/12 11:32:56;;;;;;;6.00;1.70;;;;;;;22.60;36.10;101701.91;4695056;29;20108;-71
2022/05/12 11:35:28;;;;;;;6.22;1.90;;;;;;;21.93;36.72;101694.53;4709924;29;20069;-70
2022/05/12 11:37:56;;;;;;;5.60;1.45;;;;;;;20.96;37.97;101705.75;4713378;29;20186;-70
2022/05/12 11:40:41;;;;;;;6.00;1.40;;;;;;;21.18;37.79;101702.88;4731261;29;20047;-70
2022/05/12 11:46:22;;;;;;;6.57;1.25;;;;;;;21.40;38.49;101702.78;4730165;29;20145;-70
2022/05/12 11:49:11;;;;;;;5.60;1.33;;;;;;;20.39;39.96;101694.47;4718091;29;20058;-70
2022/05/12 11:51:55;;;;;;;7.20;1.65;;;;;;;20.69;39.96;101689.34;4729549;29;20150;-70
2022/05/12 11:54:26;;;;;;;5.20;1.27;;;;;;;21.05;38.67;101686.88;4719564;29;20054;-71
2022/05/12 11:56:56;;;;;;;5.85;1.20;;;;;;;20.66;39.56;101689.84;4729374;29;20072;-71